旭川空港の過去48時間の天気

旭川空港 (Asahikawa (Civil))

現在時刻: 7/17 18:50 JST (7/17 09:50 UTC) 以下の時間は現地時間です。

過去48時間のMETAR気象情報
時間 風向 風速(m/s) 視程 気温(℃) 湿度(%) 気圧(hPa) 天気現象
17 18:00 3 10km以上 23 69 1009
17 17:00 北北東 3 10km以上 23 69 1009
17 16:00 北東 3 10km以上 24 69 1008
17 15:00 北東 2 10km以上 24 65 1008
17 14:00 北東 3 10km以上 24 65 1009
17 13:00 3 10km以上 24 65 1009
17 12:00 2 10km以上 24 69 1009
17 11:00 北北東 4 10km以上 22 73 1009
17 10:00 北北東 3 10km以上 22 73 1009
17 09:00 2 10km以上 21 73 1010
17 08:00 不定 1 10km以上 19 94 1010
17 07:12 不定 1 10km以上 17 94 1010
17 07:00 不定 1 10km以上 17 94 1010
17 06:40 不定 1 10km以上 17 94 1010
RJEC 170900Z 01005KT 320V030 9999 FEW020 SCT045 BKN060 23/17 Q1009
RJEC 170800Z 03005KT 9999 FEW025 BKN050 BKN070 23/17 Q1009
RJEC 170700Z 04005KT 9999 FEW025 SCT060 BKN070 24/18 Q1008
RJEC 170600Z 04004KT 010V070 9999 FEW025 SCT045 BKN070 24/17 Q1008
RJEC 170500Z 05005KT 350V090 9999 FEW030 BKN060 BKN070 24/17 Q1009
RJEC 170400Z 01006KT 320V050 9999 FEW030 BKN060 BKN080 24/17 Q1009
RJEC 170300Z 01004KT 300V060 9999 FEW030 BKN060 BKN080 24/18 Q1009
RJEC 170200Z 03007KT 9999 FEW030 BKN060 22/17 Q1009
RJEC 170100Z 02006KT 330V060 9999 FEW030 BKN050 22/17 Q1009
RJEC 170000Z 01003KT 310V040 9999 FEW015 SCT050 21/16 Q1010
RJEC 162300Z VRB02KT 9999 FEW008 19/18 Q1010
RJEC 162212Z VRB02KT 9999 FEW002 SCT004 17/16 Q1010 RMK 1ST002 4ST004 A2984
RJEC 162200Z VRB02KT 9999 FEW002 BKN004 17/16 Q1010
RJEC 162140Z VRB01KT 9999 FEW002 BKN004 BKN150 17/16 Q1010 RMK 1ST002 5ST004 6AC150 A2985